createdAt,value
2019-02-17T00:02:22.717Z,78.78
2019-02-17T00:04:52.841Z,78.83
2019-02-17T00:07:23.014Z,78.91
2019-02-17T00:09:55.522Z,78.97
2019-02-17T00:12:25.699Z,78.99
2019-02-17T00:14:55.758Z,79.08
2019-02-17T00:17:25.971Z,79.18
2019-02-17T00:19:56.217Z,79.18
2019-02-17T00:22:26.391Z,79.22
2019-02-17T00:24:56.460Z,79.30
2019-02-17T00:27:26.709Z,79.34
2019-02-17T00:29:56.769Z,79.41
2019-02-17T00:32:27.003Z,79.51
2019-02-17T00:34:57.122Z,79.57
2019-02-17T00:37:27.431Z,79.57
2019-02-17T00:39:57.660Z,79.66
2019-02-17T00:42:27.756Z,79.70
2019-02-17T00:44:57.869Z,79.71
2019-02-17T00:47:28.116Z,79.75
2019-02-17T00:49:58.257Z,79.83
2019-02-17T00:52:28.465Z,79.89
2019-02-17T00:54:58.599Z,79.93
2019-02-17T00:57:28.768Z,80.00
2019-02-17T00:59:58.935Z,80.06
2019-02-17T01:02:39.420Z,80.10
2019-02-17T01:05:17.338Z,80.16
2019-02-17T01:07:48.902Z,80.26
2019-02-17T01:10:19.227Z,80.33
2019-02-17T01:12:49.410Z,80.36
2019-02-17T01:15:19.541Z,80.42
2019-02-17T01:17:49.766Z,80.48
2019-02-17T01:20:20.062Z,80.49
2019-02-17T01:22:50.246Z,80.56
2019-02-17T01:25:20.378Z,80.60
2019-02-17T01:27:50.524Z,80.67
2019-02-17T01:30:20.586Z,80.63
2019-02-17T01:32:50.811Z,80.68
2019-02-17T01:35:21.049Z,80.68
2019-02-17T01:37:51.251Z,80.75
2019-02-17T01:40:21.481Z,80.83
2019-02-17T01:42:51.707Z,80.87
2019-02-17T01:45:22.103Z,80.92
2019-02-17T01:47:52.345Z,80.94
2019-02-17T01:50:22.490Z,80.96
2019-02-17T01:52:52.671Z,81.03
2019-02-17T01:55:22.865Z,81.05
2019-02-17T01:57:53.187Z,81.04
2019-02-17T02:00:23.482Z,81.11
2019-02-17T02:02:53.685Z,81.14
2019-02-17T02:05:23.842Z,81.18
2019-02-17T02:07:53.997Z,81.24
2019-02-17T02:10:24.221Z,81.31
2019-02-17T02:12:54.451Z,81.31
2019-02-17T02:15:24.540Z,81.36
2019-02-17T02:17:54.700Z,81.36
2019-02-17T02:20:25.318Z,81.42
2019-02-17T02:22:55.359Z,81.46
2019-02-17T02:25:25.552Z,81.50
2019-02-17T02:27:55.708Z,81.56
2019-02-17T02:30:25.935Z,81.53
2019-02-17T02:32:56.163Z,81.57
2019-02-17T02:35:26.822Z,81.60
2019-02-17T02:37:56.959Z,81.66
2019-02-17T02:40:27.044Z,81.71
2019-02-17T02:42:57.265Z,81.81
2019-02-17T02:45:27.403Z,81.86
2019-02-17T02:47:57.633Z,81.88
2019-02-17T02:50:27.837Z,81.91
2019-02-17T02:52:57.991Z,81.95
2019-02-17T02:55:28.068Z,81.99
2019-02-17T02:57:58.152Z,82.03
2019-02-17T03:00:28.326Z,82.06
2019-02-17T03:02:58.748Z,82.10
2019-02-17T03:05:29.225Z,82.15
2019-02-17T03:07:59.288Z,82.16
2019-02-17T03:10:29.450Z,82.20
2019-02-17T03:12:59.738Z,82.27
2019-02-17T03:15:29.881Z,82.27
2019-02-17T03:17:59.997Z,82.29
2019-02-17T03:20:30.231Z,82.35
2019-02-17T03:23:00.375Z,82.37
2019-02-17T03:25:30.633Z,82.44
2019-02-17T03:28:00.841Z,82.49
2019-02-17T03:30:31.093Z,82.51
2019-02-17T03:33:01.335Z,82.54
2019-02-17T03:35:31.663Z,82.59
2019-02-17T03:38:01.800Z,82.63
2019-02-17T03:40:32.017Z,82.66
2019-02-17T03:43:02.185Z,82.66
2019-02-17T03:45:32.420Z,82.72
2019-02-17T03:48:02.679Z,82.77
2019-02-17T03:50:32.997Z,82.80
2019-02-17T03:53:03.119Z,82.84
2019-02-17T03:55:33.323Z,82.92
2019-02-17T03:58:03.629Z,82.91
2019-02-17T04:00:35.709Z,82.95
2019-02-17T04:03:06.961Z,82.93
2019-02-17T04:05:37.202Z,82.96
2019-02-17T04:08:07.529Z,83.00
2019-02-17T04:10:37.684Z,83.07
2019-02-17T04:13:07.756Z,83.10
2019-02-17T04:15:37.915Z,83.18
2019-02-17T04:18:08.063Z,83.21
2019-02-17T04:20:38.345Z,83.26
2019-02-17T04:23:08.488Z,83.27
2019-02-17T04:25:38.743Z,83.33
2019-02-17T04:28:08.970Z,83.28
2019-02-17T04:30:39.137Z,83.23
2019-02-17T04:33:09.383Z,83.26
2019-02-17T04:35:39.538Z,83.38
2019-02-17T04:38:09.776Z,83.43
2019-02-17T04:40:39.943Z,83.46
2019-02-17T04:43:10.174Z,83.54
2019-02-17T04:45:40.388Z,83.55
2019-02-17T04:48:10.539Z,83.59
2019-02-17T04:50:40.805Z,83.60
2019-02-17T04:53:11.022Z,83.59
2019-02-17T04:55:41.217Z,83.55
2019-02-17T04:58:11.563Z,83.51
2019-02-17T05:00:41.642Z,83.51
2019-02-17T05:03:11.826Z,83.56
2019-02-17T05:05:41.976Z,83.56
2019-02-17T05:08:12.074Z,83.49
2019-02-17T05:10:42.346Z,83.43
2019-02-17T05:13:12.722Z,83.48
2019-02-17T05:15:43.040Z,83.54
2019-02-17T05:18:13.410Z,83.60
2019-02-17T05:20:51.241Z,83.67
2019-02-17T05:23:21.454Z,83.70
2019-02-17T05:25:55.150Z,83.63
2019-02-17T05:28:25.671Z,83.66
2019-02-17T05:30:58.298Z,83.62
2019-02-17T05:33:28.317Z,83.54
2019-02-17T05:35:58.964Z,83.61
2019-02-17T05:38:31.062Z,83.58
2019-02-17T05:41:01.763Z,83.60
2019-02-17T05:43:33.763Z,83.56
2019-02-17T05:46:04.259Z,83.51
2019-02-17T05:48:34.728Z,83.53
2019-02-17T05:51:05.143Z,83.53
2019-02-17T05:53:35.666Z,83.52
2019-02-17T05:56:07.379Z,83.50
2019-02-17T05:58:38.030Z,83.53
2019-02-17T06:01:08.590Z,83.54
2019-02-17T06:03:38.859Z,83.53
2019-02-17T06:06:09.279Z,83.53
2019-02-17T06:08:39.753Z,83.52
2019-02-17T06:11:10.047Z,83.54
2019-02-17T06:13:40.590Z,83.53
2019-02-17T06:16:11.223Z,83.44
2019-02-17T06:18:41.755Z,83.40
2019-02-17T06:21:12.195Z,83.48
2019-02-17T06:23:42.621Z,83.52
2019-02-17T06:26:13.176Z,83.56
2019-02-17T06:28:44.689Z,83.52
2019-02-17T06:31:15.249Z,83.51
2019-02-17T06:33:45.680Z,83.47
2019-02-17T06:36:15.988Z,83.44
2019-02-17T06:38:46.525Z,83.43
2019-02-17T06:41:17.042Z,83.38
2019-02-17T06:43:47.541Z,83.45
2019-02-17T06:46:21.900Z,83.47
2019-02-17T06:48:52.399Z,83.43
2019-02-17T06:51:22.815Z,83.42
2019-02-17T06:53:53.340Z,83.48
2019-02-17T06:56:54.708Z,83.47
2019-02-17T06:59:25.357Z,83.52
2019-02-17T07:01:55.838Z,83.53
2019-02-17T07:04:48.378Z,83.53
2019-02-17T07:07:19.046Z,83.55
2019-02-17T07:09:49.491Z,83.52
2019-02-17T07:12:20.029Z,83.48
2019-02-17T07:14:50.681Z,83.44
2019-02-17T07:17:21.136Z,83.43
2019-02-17T07:19:51.575Z,83.48
2019-02-17T07:22:22.662Z,83.44
2019-02-17T07:24:53.040Z,83.46
2019-02-17T07:27:23.671Z,83.46
2019-02-17T07:29:55.442Z,83.47
2019-02-17T07:32:25.900Z,83.47
2019-02-17T07:34:59.845Z,83.49
2019-02-17T07:37:33.557Z,83.46
2019-02-17T07:40:02.981Z,83.47
2019-02-17T07:42:36.130Z,83.42
2019-02-17T07:45:07.110Z,83.37
2019-02-17T07:47:40.648Z,83.31
2019-02-17T07:50:14.328Z,83.29
2019-02-17T07:52:46.458Z,83.31
2019-02-17T07:55:17.125Z,83.20
2019-02-17T07:57:47.783Z,83.19
2019-02-17T08:00:18.378Z,83.10
2019-02-17T08:02:49.665Z,83.03
2019-02-17T08:05:22.008Z,82.98
2019-02-17T08:07:52.764Z,82.94
2019-02-17T08:10:23.538Z,82.86
2019-02-17T08:12:54.101Z,82.80
2019-02-17T08:15:24.504Z,82.75
2019-02-17T08:17:54.635Z,82.78
2019-02-17T08:20:24.874Z,82.67
2019-02-17T08:22:55.098Z,82.63
2019-02-17T08:25:25.343Z,82.58
2019-02-17T08:27:55.539Z,82.58
2019-02-17T08:30:25.794Z,82.51
2019-02-17T08:32:56.048Z,82.44
2019-02-17T08:35:29.224Z,82.41
2019-02-17T08:37:59.428Z,82.46
2019-02-17T08:40:29.729Z,82.37
2019-02-17T08:43:00.281Z,82.36
2019-02-17T08:45:30.630Z,82.27
2019-02-17T08:48:01.042Z,82.19
2019-02-17T08:50:31.233Z,82.11
2019-02-17T08:53:01.685Z,82.10
2019-02-17T08:55:31.877Z,82.03
2019-02-17T08:58:02.061Z,81.97
2019-02-17T09:00:32.254Z,81.87
2019-02-17T09:03:02.671Z,81.79
2019-02-17T09:05:32.870Z,81.71
2019-02-17T09:08:05.418Z,81.57
2019-02-17T09:10:35.697Z,81.43
2019-02-17T09:13:06.704Z,81.32
2019-02-17T09:15:36.931Z,81.11
2019-02-17T09:18:07.304Z,80.91
2019-02-17T09:20:37.439Z,80.75
2019-02-17T09:23:07.550Z,80.61
2019-02-17T09:25:37.792Z,80.56
2019-02-17T09:28:08.085Z,80.43
2019-02-17T09:30:38.327Z,80.26
2019-02-17T09:33:10.422Z,80.16
2019-02-17T09:35:40.713Z,80.00
2019-02-17T09:38:10.969Z,79.91
2019-02-17T09:40:41.300Z,79.77
2019-02-17T09:43:11.548Z,79.69
2019-02-17T09:45:47.053Z,79.59
2019-02-17T09:48:17.163Z,79.45
2019-02-17T09:50:47.425Z,79.29
2019-02-17T09:53:17.728Z,79.11
2019-02-17T09:55:47.934Z,78.97
2019-02-17T09:58:18.407Z,78.88
2019-02-17T10:00:48.552Z,78.67
2019-02-17T10:03:18.714Z,78.53
2019-02-17T10:05:48.893Z,78.33
2019-02-17T10:08:19.047Z,78.14
2019-02-17T10:10:49.435Z,77.95
2019-02-17T10:13:19.502Z,77.80
2019-02-17T10:15:52.466Z,77.69
2019-02-17T10:18:22.603Z,77.47
2019-02-17T10:20:52.830Z,77.26
2019-02-17T10:23:22.979Z,77.10
2019-02-17T10:25:56.636Z,76.96
2019-02-17T10:28:26.956Z,76.73
2019-02-17T10:30:57.178Z,76.59
2019-02-17T10:33:27.546Z,76.39
2019-02-17T10:35:57.642Z,76.23
2019-02-17T10:38:28.914Z,76.07
2019-02-17T10:40:58.991Z,75.91
2019-02-17T10:43:29.203Z,75.70
2019-02-17T10:45:59.365Z,75.58
2019-02-17T10:48:29.657Z,75.40
2019-02-17T10:51:00.092Z,75.11
2019-02-17T10:53:30.225Z,74.88
2019-02-17T10:56:00.623Z,74.64
2019-02-17T10:58:30.868Z,74.43
2019-02-17T11:01:00.986Z,74.20
2019-02-17T11:03:31.285Z,73.92
2019-02-17T11:06:04.467Z,73.68
2019-02-17T11:08:34.822Z,73.44
2019-02-17T11:11:07.630Z,73.19
2019-02-17T11:13:37.846Z,72.93
2019-02-17T11:16:08.123Z,72.71
2019-02-17T11:18:38.344Z,72.56
2019-02-17T11:21:08.526Z,72.34
2019-02-17T11:23:38.832Z,72.12
2019-02-17T11:26:11.137Z,71.93
2019-02-17T11:28:41.420Z,71.70
2019-02-17T11:31:40.572Z,71.54
2019-02-17T11:34:10.914Z,71.28
2019-02-17T11:36:41.371Z,70.92
2019-02-17T11:39:27.225Z,70.57
2019-02-17T11:41:57.317Z,70.11
2019-02-17T11:44:27.681Z,69.83
2019-02-17T11:47:00.362Z,69.38
2019-02-17T11:49:30.514Z,69.00
2019-02-17T11:52:08.878Z,68.57
2019-02-17T11:54:39.096Z,68.31
2019-02-17T11:57:15.473Z,68.12
2019-02-17T11:59:45.594Z,67.76
2019-02-17T12:02:24.719Z,67.51
2019-02-17T12:04:48.007Z,67.16
2019-02-17T12:07:18.238Z,66.85
2019-02-17T12:09:48.464Z,66.54
2019-02-17T12:12:18.628Z,66.28
2019-02-17T12:14:48.956Z,65.95
2019-02-17T12:17:19.157Z,65.62
2019-02-17T12:19:49.347Z,65.22
2019-02-17T12:22:36.489Z,64.84
2019-02-17T12:25:11.350Z,64.36
2019-02-17T12:27:55.102Z,64.20
2019-02-17T12:30:26.258Z,64.08
2019-02-17T12:32:58.313Z,63.91
2019-02-17T12:35:28.420Z,63.44
2019-02-17T12:37:58.570Z,63.26
2019-02-17T12:40:28.839Z,62.87
2019-02-17T12:43:09.507Z,62.63
2019-02-17T12:45:39.847Z,62.42
2019-02-17T12:48:10.188Z,62.11
2019-02-17T12:50:40.318Z,61.78
2019-02-17T12:53:10.646Z,61.61
2019-02-17T12:55:40.932Z,61.40
2019-02-17T12:58:11.119Z,61.15
2019-02-17T13:00:44.627Z,60.95
2019-02-17T13:03:15.028Z,60.61
2019-02-17T13:05:45.315Z,60.18
2019-02-17T13:08:15.592Z,59.87
2019-02-17T13:10:47.851Z,59.82
2019-02-17T13:13:18.131Z,59.32
2019-02-17T13:15:48.343Z,57.99
2019-02-17T13:18:18.778Z,56.54
2019-02-17T13:20:49.028Z,55.22
2019-02-17T13:23:19.208Z,54.08
2019-02-17T13:25:51.548Z,53.33
2019-02-17T13:28:23.538Z,52.31
2019-02-17T13:30:53.882Z,51.78
2019-02-17T13:33:24.165Z,51.29
2019-02-17T13:35:57.323Z,50.39
2019-02-17T13:38:27.744Z,49.75
2019-02-17T13:41:00.946Z,49.37
2019-02-17T13:43:34.331Z,49.14
2019-02-17T13:46:07.215Z,49.17
2019-02-17T13:48:38.848Z,48.77
2019-02-17T13:51:11.256Z,48.45
2019-02-17T13:53:44.390Z,47.93
2019-02-17T13:56:14.620Z,47.59
2019-02-17T13:58:45.353Z,47.16
2019-02-17T14:01:15.686Z,47.37
2019-02-17T14:03:48.951Z,47.32
2019-02-17T14:06:17.987Z,47.70
2019-02-17T14:08:49.813Z,47.55
2019-02-17T14:11:20.136Z,47.44
2019-02-17T14:13:50.547Z,47.35
2019-02-17T14:16:20.790Z,47.34
2019-02-17T14:18:51.071Z,47.37
2019-02-17T14:21:22.628Z,47.43
2019-02-17T14:23:55.804Z,47.43
2019-02-17T14:26:26.179Z,47.66
2019-02-17T14:28:56.449Z,47.89
2019-02-17T14:31:26.767Z,48.06
2019-02-17T14:33:58.805Z,48.29
2019-02-17T14:36:32.054Z,48.43
2019-02-17T14:39:04.952Z,48.74
2019-02-17T14:41:35.363Z,48.89
2019-02-17T14:44:09.239Z,48.88
2019-02-17T14:46:40.788Z,49.23
2019-02-17T14:49:11.196Z,49.38
2019-02-17T14:51:41.428Z,49.50
2019-02-17T14:54:11.653Z,49.56
2019-02-17T14:56:42.206Z,49.61
2019-02-17T14:59:12.647Z,49.80
2019-02-17T15:01:43.121Z,49.99
2019-02-17T15:04:13.651Z,50.02
2019-02-17T15:06:49.043Z,50.18
2019-02-17T15:09:19.573Z,50.58
2019-02-17T15:11:52.394Z,50.98
2019-02-17T15:14:30.043Z,51.36
2019-02-17T15:17:01.107Z,51.58
2019-02-17T15:19:37.930Z,51.93
2019-02-17T15:22:11.312Z,52.11
2019-02-17T15:24:42.721Z,52.23
2019-02-17T15:27:18.760Z,52.47
2019-02-17T15:29:51.198Z,52.68
2019-02-17T15:32:22.109Z,52.77
2019-02-17T15:34:52.964Z,52.88
2019-02-17T15:37:26.368Z,53.04
2019-02-17T15:39:57.888Z,53.26
2019-02-17T15:42:38.883Z,53.52
2019-02-17T15:45:56.844Z,53.54
2019-02-17T15:48:42.292Z,53.74
2019-02-17T15:51:12.853Z,54.07
2019-02-17T15:53:43.648Z,54.27
2019-02-17T15:56:26.716Z,54.43
2019-02-17T15:59:07.372Z,54.60
2019-02-17T16:14:53.003Z,54.55
2019-02-17T16:17:23.432Z,54.78
2019-02-17T16:19:53.896Z,54.89
2019-02-17T16:22:27.013Z,55.16
2019-02-17T16:25:02.929Z,55.40
2019-02-17T16:27:45.098Z,55.69
2019-02-17T16:30:24.052Z,55.94
2019-02-17T16:33:10.158Z,56.32
2019-02-17T16:35:40.505Z,56.67
2019-02-17T16:38:12.782Z,57.03
2019-02-17T16:40:46.611Z,57.37
2019-02-17T16:43:20.230Z,57.77
2019-02-17T16:45:50.912Z,58.15
2019-02-17T16:48:21.500Z,58.57
2019-02-17T16:50:51.947Z,58.91
2019-02-17T16:53:24.365Z,59.17
2019-02-17T16:55:55.711Z,59.41
2019-02-17T16:58:26.432Z,59.66
2019-02-17T17:00:57.059Z,59.77
2019-02-17T17:03:27.587Z,59.90
2019-02-17T17:05:58.428Z,60.08
2019-02-17T17:08:29.189Z,60.31
2019-02-17T17:11:00.417Z,60.57
2019-02-17T17:13:33.690Z,60.79
2019-02-17T17:16:04.364Z,61.01
2019-02-17T17:18:35.184Z,61.25
2019-02-17T17:21:05.754Z,61.47
2019-02-17T17:23:45.444Z,61.72
2019-02-17T17:26:16.089Z,61.96
2019-02-17T17:28:46.699Z,62.12
2019-02-17T17:31:17.301Z,62.30
2019-02-17T17:33:47.996Z,62.42
2019-02-17T17:36:18.647Z,62.58
2019-02-17T17:38:52.555Z,62.69
2019-02-17T17:41:26.462Z,62.77
2019-02-17T17:43:57.060Z,62.91
2019-02-17T17:46:27.854Z,63.01
2019-02-17T17:49:07.089Z,63.07
2019-02-17T17:51:52.780Z,63.16
2019-02-17T17:54:27.056Z,63.30
2019-02-17T17:56:59.668Z,63.43
2019-02-17T18:00:50.489Z,63.51
2019-02-17T18:03:23.093Z,63.59
2019-02-17T18:05:53.353Z,63.79
2019-02-17T18:08:23.654Z,63.90
2019-02-17T18:11:04.059Z,64.03
2019-02-17T18:13:34.168Z,64.13
2019-02-17T18:16:04.592Z,64.34
2019-02-17T18:18:34.716Z,64.53
2019-02-17T18:21:04.994Z,64.63
2019-02-17T18:23:35.147Z,64.77
2019-02-17T18:26:06.531Z,64.92
2019-02-17T18:28:36.726Z,65.14
2019-02-17T18:31:07.036Z,65.30
2019-02-17T18:33:40.074Z,65.51
2019-02-17T18:36:10.530Z,65.71
2019-02-17T18:38:43.394Z,65.92
2019-02-17T18:41:13.993Z,66.11
2019-02-17T18:43:44.211Z,66.32
2019-02-17T18:46:14.504Z,66.43
2019-02-17T18:48:44.771Z,66.64
2019-02-17T18:51:15.134Z,66.87
2019-02-17T18:53:45.299Z,67.00
2019-02-17T18:56:15.767Z,67.23
2019-02-17T18:58:45.997Z,67.34
2019-02-17T19:01:16.389Z,67.58
2019-02-17T19:03:47.254Z,67.78
2019-02-17T19:06:17.866Z,67.86
2019-02-17T19:08:48.733Z,67.99
2019-02-17T19:11:19.699Z,68.09
2019-02-17T19:13:50.502Z,68.23
2019-02-17T19:16:21.186Z,68.25
2019-02-17T19:18:51.825Z,68.33
2019-02-17T19:21:22.408Z,68.40
2019-02-17T19:23:52.877Z,68.58
2019-02-17T19:26:23.511Z,68.66
2019-02-17T19:28:53.975Z,68.74
2019-02-17T19:31:24.569Z,68.87
2019-02-17T19:33:57.577Z,69.06
2019-02-17T19:36:28.233Z,69.23
2019-02-17T19:38:58.736Z,69.32
2019-02-17T19:41:29.392Z,69.44
2019-02-17T19:43:59.884Z,69.59
2019-02-17T19:46:30.370Z,69.74
2019-02-17T19:49:00.834Z,69.92
2019-02-17T19:51:31.494Z,70.03
2019-02-17T19:54:02.078Z,70.15
2019-02-17T19:56:32.583Z,70.27
2019-02-17T19:59:03.206Z,70.42
2019-02-17T20:01:34.444Z,70.55
2019-02-17T20:04:33.119Z,70.58
2019-02-17T20:07:03.977Z,70.66
2019-02-17T20:09:34.451Z,70.75
2019-02-17T20:12:05.079Z,70.87
2019-02-17T20:14:35.619Z,71.01
2019-02-17T20:17:07.061Z,71.14
2019-02-17T20:19:37.615Z,71.32
2019-02-17T20:22:08.406Z,71.41
2019-02-17T20:24:39.104Z,71.48
2019-02-17T20:27:09.624Z,71.62
2019-02-17T20:29:40.075Z,71.72
2019-02-17T20:32:10.466Z,71.81
2019-02-17T20:34:40.841Z,71.93
2019-02-17T20:39:57.517Z,72.38
2019-02-17T20:42:28.502Z,72.45
2019-02-17T20:44:59.493Z,72.54
2019-02-17T20:47:30.141Z,72.62
2019-02-17T20:50:00.821Z,72.69
2019-02-17T20:52:32.277Z,72.72
2019-02-17T20:55:02.891Z,72.82
2019-02-17T20:57:33.410Z,72.87
2019-02-17T21:00:04.120Z,72.92
2019-02-17T21:02:34.639Z,73.00
2019-02-17T21:05:05.658Z,73.08
2019-02-17T21:07:36.419Z,73.15
2019-02-17T21:10:07.856Z,73.08
2019-02-17T21:12:38.471Z,73.09
2019-02-17T21:15:09.995Z,73.13
2019-02-17T21:17:40.611Z,73.17
2019-02-17T21:20:11.392Z,73.25
2019-02-17T21:22:41.813Z,73.26
2019-02-17T21:25:12.429Z,73.33
2019-02-17T21:27:42.952Z,73.43
2019-02-17T21:30:13.790Z,73.49
2019-02-17T21:32:44.234Z,73.53
2019-02-17T21:35:15.098Z,73.55
2019-02-17T21:37:45.700Z,73.60
2019-02-17T21:40:17.783Z,73.66
2019-02-17T21:42:48.275Z,73.65
2019-02-17T21:45:18.824Z,73.66
2019-02-17T21:47:49.523Z,73.62
2019-02-17T21:50:20.087Z,73.61
2019-02-17T21:52:50.894Z,73.58
2019-02-17T21:55:21.425Z,73.55
2019-02-17T21:57:51.969Z,73.54
2019-02-17T22:00:22.540Z,73.52
2019-02-17T22:02:53.027Z,73.45
2019-02-17T22:05:23.763Z,73.39
2019-02-17T22:07:54.211Z,73.38
2019-02-17T22:10:24.837Z,73.37
2019-02-17T22:12:55.529Z,73.35
2019-02-17T22:18:29.800Z,73.30
2019-02-17T22:21:00.442Z,73.34
2019-02-17T22:23:30.938Z,73.37
2019-02-17T22:26:01.481Z,73.33
2019-02-17T22:28:32.037Z,73.31
2019-02-17T22:31:02.534Z,73.29
2019-02-17T22:33:33.202Z,73.25
2019-02-17T22:36:03.638Z,73.14
2019-02-17T22:38:34.672Z,73.04
2019-02-17T22:41:06.231Z,72.94
2019-02-17T22:43:36.839Z,72.82
2019-02-17T22:46:07.690Z,72.74
2019-02-17T22:48:38.183Z,72.66
2019-02-17T22:51:08.823Z,72.55
2019-02-17T22:53:43.528Z,72.42
2019-02-17T22:56:12.089Z,72.40
2019-02-17T22:58:42.985Z,72.33
2019-02-17T23:01:20.224Z,72.25
2019-02-17T23:03:52.409Z,72.14
2019-02-17T23:06:23.170Z,72.08
2019-02-17T23:08:53.768Z,72.02
2019-02-17T23:11:24.333Z,71.93
2019-02-17T23:13:54.552Z,71.89
2019-02-17T23:16:24.904Z,71.79
2019-02-17T23:18:55.249Z,71.76
2019-02-17T23:21:25.592Z,71.68
2019-02-17T23:23:56.124Z,71.55
2019-02-17T23:26:26.413Z,71.44
2019-02-17T23:28:56.722Z,71.41
2019-02-17T23:31:27.022Z,71.32
2019-02-17T23:33:57.375Z,71.20
2019-02-17T23:36:27.467Z,71.09
2019-02-17T23:38:57.739Z,70.87
2019-02-17T23:41:27.903Z,70.70
2019-02-17T23:43:58.208Z,70.52
2019-02-17T23:46:28.470Z,70.37
2019-02-17T23:48:58.607Z,70.19
2019-02-17T23:51:28.687Z,70.01
2019-02-17T23:53:58.991Z,69.81
2019-02-17T23:56:29.293Z,69.73
2019-02-17T23:58:59.451Z,69.64
